Weather at Dobova Airfield

Public forecast

Using degrees Celsius for public forecast. Weather courtesy of forecast.io.

Closest aviation weather report (METAR) to Dobova Airfield

Report is more than 6 hours old.

Closest report is Cerklje Air Base, 5.1 nm (9.4 km) W. Retrieved 2022/09/17 19:00 UTC (13 days ago):

LJCE 171900Z AUTO 20002KT 9999 NSC 10/09 Q1010

Closest aviation forecast (TAF) to Dobova Airfield

Forecast is more than 12 hours old.

Closest forecast is Zagreb Airport, 19.6 nm (36.2 km) ESE. Retrieved 2022/09/17 18:00 UTC (13 days ago):

TAF LDZA 171725Z 1718/1818 22006KT CAVOK TX20/1813Z TN07/1804Z